createdAt,value
2023-01-20T00:04:07.720Z,1.87
2023-01-20T00:09:18.207Z,1.77
2023-01-20T00:14:25.352Z,1.55
2023-01-20T00:19:30.964Z,1.53
2023-01-20T00:24:36.576Z,1.48
2023-01-20T00:29:43.599Z,1.39
2023-01-20T00:34:49.002Z,1.45
2023-01-20T00:39:54.461Z,1.65
2023-01-20T00:45:00.433Z,1.66
2023-01-20T00:50:06.606Z,1.65
2023-01-20T00:55:12.450Z,1.62
2023-01-20T01:00:20.264Z,1.59
2023-01-20T01:05:25.927Z,1.56
2023-01-20T01:10:32.037Z,1.57
2023-01-20T01:15:38.561Z,1.54
2023-01-20T01:20:44.955Z,1.62
2023-01-20T01:25:50.486Z,1.60
2023-01-20T01:30:56.306Z,1.70
2023-01-20T01:36:03.997Z,1.76
2023-01-20T01:41:10.727Z,1.80
2023-01-20T01:46:16.189Z,1.84
2023-01-20T01:51:24.641Z,1.66
2023-01-20T01:56:31.835Z,1.64
2023-01-20T02:01:39.723Z,1.69
2023-01-20T02:06:50.889Z,1.72
2023-01-20T02:11:59.332Z,1.73
2023-01-20T02:17:07.765Z,1.81
2023-01-20T02:22:16.276Z,1.84
2023-01-20T02:27:34.925Z,1.77
2023-01-20T02:32:49.356Z,1.87
2023-01-20T02:38:06.409Z,1.94
2023-01-20T02:43:16.065Z,1.98
2023-01-20T02:48:27.298Z,2.14
2023-01-20T02:53:35.732Z,2.27
2023-01-20T02:58:53.345Z,2.36
2023-01-20T03:04:02.394Z,2.39
2023-01-20T03:09:10.876Z,2.40
2023-01-20T03:14:17.386Z,2.52
2023-01-20T03:19:22.995Z,2.64
2023-01-20T03:24:30.588Z,2.68
2023-01-20T03:29:36.323Z,2.67
2023-01-20T03:34:44.118Z,2.63
2023-01-20T03:39:50.051Z,2.56
2023-01-20T03:45:07.455Z,2.48
2023-01-20T03:50:39.697Z,2.39
2023-01-20T03:55:50.953Z,2.33
2023-01-20T04:00:57.881Z,2.23
2023-01-20T04:06:07.214Z,2.20
2023-01-20T04:11:12.769Z,2.04
2023-01-20T04:16:20.317Z,1.99
2023-01-20T04:21:38.063Z,1.92
2023-01-20T04:26:43.729Z,1.86
2023-01-20T04:31:49.364Z,1.96
2023-01-20T04:36:54.955Z,1.97
2023-01-20T04:42:00.488Z,2.06
2023-01-20T04:47:06.131Z,2.13
2023-01-20T04:52:11.641Z,2.19
2023-01-20T04:57:17.108Z,2.19
2023-01-20T05:02:22.779Z,2.17
2023-01-20T05:07:28.481Z,2.29
2023-01-20T05:12:33.937Z,2.38
2023-01-20T05:17:39.321Z,2.60
2023-01-20T05:22:44.705Z,2.50
2023-01-20T05:27:50.088Z,2.63
2023-01-20T05:32:55.608Z,2.64
2023-01-20T05:38:01.116Z,2.55
2023-01-20T05:43:06.574Z,2.44
2023-01-20T05:48:12.048Z,2.21
2023-01-20T05:53:17.831Z,2.33
2023-01-20T05:58:23.363Z,2.15
2023-01-20T06:03:28.796Z,1.86
2023-01-20T06:08:34.434Z,1.87
2023-01-20T06:13:39.930Z,1.92
2023-01-20T06:18:45.858Z,1.90
2023-01-20T06:23:51.412Z,1.95
2023-01-20T06:29:01.688Z,1.83
2023-01-20T06:34:07.051Z,1.90
2023-01-20T06:39:12.523Z,2.02
2023-01-20T06:44:18.139Z,2.23
2023-01-20T06:49:23.662Z,2.41
2023-01-20T06:54:29.014Z,2.44
2023-01-20T06:59:34.472Z,2.05
2023-01-20T07:04:39.978Z,1.87
2023-01-20T07:09:45.366Z,1.84
2023-01-20T07:14:50.965Z,1.84
2023-01-20T07:19:56.441Z,1.89
2023-01-20T07:25:01.885Z,1.86
2023-01-20T07:30:08.596Z,1.85
2023-01-20T07:35:14.361Z,1.93
2023-01-20T07:40:20.228Z,2.09
2023-01-20T07:45:26.755Z,2.15
2023-01-20T07:50:32.261Z,2.17
2023-01-20T07:55:37.824Z,2.25
2023-01-20T08:00:43.473Z,2.40
2023-01-20T08:05:49.085Z,2.47
2023-01-20T08:10:58.510Z,2.46
2023-01-20T08:16:05.945Z,2.36
2023-01-20T08:21:14.377Z,2.48
2023-01-20T08:26:20.173Z,2.59
2023-01-20T08:31:26.201Z,2.63
2023-01-20T08:36:34.607Z,2.57
2023-01-20T08:41:42.685Z,2.54
2023-01-20T08:46:49.940Z,2.64
2023-01-20T08:51:56.388Z,2.56
2023-01-20T08:57:02.023Z,2.67
2023-01-20T09:02:07.767Z,2.68
2023-01-20T09:07:14.226Z,2.78
2023-01-20T09:12:19.682Z,2.80
2023-01-20T09:17:25.177Z,2.83
2023-01-20T09:22:30.550Z,2.71
2023-01-20T09:27:36.068Z,2.85
2023-01-20T09:32:42.439Z,3.01
2023-01-20T09:38:06.695Z,3.02
2023-01-20T09:43:50.125Z,3.01
2023-01-20T09:49:38.019Z,2.90
2023-01-20T09:54:49.210Z,2.92
2023-01-20T09:59:57.769Z,3.09
2023-01-20T10:05:09.076Z,2.99
2023-01-20T10:10:20.302Z,2.87
2023-01-20T10:15:31.627Z,2.86
2023-01-20T10:20:48.875Z,2.83
2023-01-20T10:26:09.483Z,2.87
2023-01-20T10:31:19.841Z,2.68
2023-01-20T10:36:31.161Z,2.78
2023-01-20T10:41:48.684Z,2.93
2023-01-20T10:47:18.140Z,2.99
2023-01-20T10:52:44.712Z,3.24
2023-01-20T10:57:54.754Z,3.26
2023-01-20T11:03:03.120Z,3.28
2023-01-20T11:08:11.756Z,4.30
2023-01-20T11:13:17.840Z,3.58
2023-01-20T11:18:27.981Z,3.31
2023-01-20T11:23:39.249Z,3.16
2023-01-20T11:28:50.750Z,3.12
2023-01-20T11:33:58.675Z,3.31
2023-01-20T11:39:06.057Z,3.52
2023-01-20T11:44:14.714Z,3.53
2023-01-20T11:49:24.029Z,3.79
2023-01-20T11:54:30.957Z,3.67
2023-01-20T11:59:39.296Z,3.47
2023-01-20T12:05:10.155Z,3.25
2023-01-20T12:10:24.273Z,3.43
2023-01-20T12:15:33.049Z,3.33
2023-01-20T12:20:54.829Z,3.28
2023-01-20T12:26:00.711Z,2.95
2023-01-20T12:31:08.415Z,2.92
2023-01-20T12:36:25.913Z,3.04
2023-01-20T12:41:43.160Z,3.18
2023-01-20T12:46:51.670Z,3.20
2023-01-20T12:52:08.990Z,2.98
2023-01-20T12:57:32.956Z,3.28
2023-01-20T13:02:47.195Z,3.51
2023-01-20T13:08:20.677Z,3.46
2023-01-20T13:13:40.253Z,3.56
2023-01-20T13:18:54.200Z,3.17
2023-01-20T13:24:02.598Z,3.01
2023-01-20T13:29:09.558Z,2.90
2023-01-20T13:34:26.989Z,2.86
2023-01-20T13:39:44.564Z,2.77
2023-01-20T13:45:09.644Z,2.72
2023-01-20T13:50:38.687Z,3.04
2023-01-20T13:55:49.978Z,3.11
2023-01-20T14:01:06.467Z,2.88
2023-01-20T14:06:15.001Z,2.90
2023-01-20T14:11:23.191Z,2.79
2023-01-20T14:16:37.705Z,2.59
2023-01-20T14:21:44.211Z,2.67
2023-01-20T14:26:49.595Z,2.48
2023-01-20T14:31:55.270Z,2.63
2023-01-20T14:37:06.796Z,2.69
2023-01-20T14:42:15.234Z,2.67
2023-01-20T14:47:22.487Z,2.75
2023-01-20T14:52:32.021Z,2.83
2023-01-20T14:57:44.691Z,2.67
2023-01-20T15:03:10.164Z,2.42
2023-01-20T15:08:25.784Z,2.20
2023-01-20T15:13:31.322Z,1.99
2023-01-20T15:18:36.805Z,2.00
2023-01-20T15:23:43.904Z,2.16
2023-01-20T15:28:49.693Z,2.29
2023-01-20T15:33:55.247Z,2.36
2023-01-20T15:39:00.705Z,2.24
2023-01-20T15:44:06.338Z,2.22
2023-01-20T15:49:12.458Z,2.23
2023-01-20T15:54:17.934Z,2.12
2023-01-20T15:59:24.489Z,2.47
2023-01-20T16:04:31.692Z,2.60
2023-01-20T16:09:38.715Z,2.43
2023-01-20T16:14:44.349Z,2.43
2023-01-20T16:19:50.684Z,2.69
2023-01-20T16:24:56.227Z,2.49
2023-01-20T16:30:01.756Z,2.25
2023-01-20T16:35:07.908Z,2.26
2023-01-20T16:40:17.269Z,2.35
2023-01-20T16:45:31.611Z,2.59
2023-01-20T16:50:38.196Z,2.50
2023-01-20T16:55:48.461Z,2.34
2023-01-20T17:00:54.085Z,2.58
2023-01-20T17:05:59.517Z,2.65
2023-01-20T17:11:05.198Z,2.63
2023-01-20T17:16:10.663Z,2.70
2023-01-20T17:21:16.333Z,2.81
2023-01-20T17:26:22.940Z,2.89
2023-01-20T17:31:28.552Z,2.85
2023-01-20T17:36:35.019Z,2.82
2023-01-20T17:41:40.814Z,2.81
2023-01-20T17:46:47.797Z,2.77
2023-01-20T17:51:53.202Z,2.84
2023-01-20T17:56:59.130Z,2.93
2023-01-20T18:02:05.729Z,2.93
2023-01-20T18:07:11.622Z,2.85
2023-01-20T18:12:17.160Z,2.86
2023-01-20T18:17:23.010Z,2.82
2023-01-20T18:22:28.637Z,2.66
2023-01-20T18:27:34.194Z,2.66
2023-01-20T18:32:39.835Z,2.61
2023-01-20T18:37:45.458Z,2.67
2023-01-20T18:42:50.912Z,2.74
2023-01-20T18:47:56.457Z,2.67
2023-01-20T18:53:01.925Z,2.57
2023-01-20T18:58:09.241Z,2.68
2023-01-20T19:03:14.718Z,2.65
2023-01-20T19:08:20.303Z,2.64
2023-01-20T19:13:25.858Z,2.54
2023-01-20T19:18:31.523Z,2.64
2023-01-20T19:23:37.268Z,2.64
2023-01-20T19:28:43.025Z,2.58
2023-01-20T19:33:52.525Z,2.53
2023-01-20T19:38:58.934Z,2.45
2023-01-20T19:44:07.935Z,2.43
2023-01-20T19:49:13.985Z,2.30
2023-01-20T19:54:19.516Z,2.25
2023-01-20T19:59:25.286Z,2.16
2023-01-20T20:04:31.258Z,2.19
2023-01-20T20:09:37.823Z,2.17
2023-01-20T20:14:43.694Z,2.17
2023-01-20T20:19:49.225Z,2.26
2023-01-20T20:24:54.761Z,2.15
2023-01-20T20:30:01.434Z,2.09
2023-01-20T20:35:07.736Z,2.06
2023-01-20T20:40:14.600Z,2.02
2023-01-20T20:45:20.403Z,1.96
2023-01-20T20:50:27.528Z,1.79
2023-01-20T20:55:32.922Z,1.89
2023-01-20T21:00:39.072Z,1.95
2023-01-20T21:05:49.497Z,1.93
2023-01-20T21:10:55.057Z,1.97
2023-01-20T21:16:04.829Z,2.12
2023-01-20T21:21:13.719Z,2.11
2023-01-20T21:26:19.872Z,2.10
2023-01-20T21:31:26.972Z,2.07
2023-01-20T21:36:34.656Z,2.13
2023-01-20T21:41:40.630Z,2.21
2023-01-20T21:46:46.293Z,2.19
2023-01-20T21:52:09.879Z,2.26
2023-01-20T21:57:15.897Z,2.31
2023-01-20T22:02:21.898Z,2.32
2023-01-20T22:07:27.653Z,2.31
2023-01-20T22:12:34.871Z,2.36
2023-01-20T22:17:41.552Z,2.41
2023-01-20T22:22:47.743Z,2.42
2023-01-20T22:27:53.316Z,2.49
2023-01-20T22:32:58.924Z,2.51
2023-01-20T22:38:04.656Z,2.56
2023-01-20T22:43:10.207Z,2.61
2023-01-20T22:48:15.706Z,2.55
2023-01-20T22:53:21.276Z,2.44
2023-01-20T22:58:26.717Z,2.39
2023-01-20T23:03:32.321Z,2.50
2023-01-20T23:08:38.163Z,2.49
2023-01-20T23:13:44.228Z,2.51
2023-01-20T23:18:50.884Z,2.63
2023-01-20T23:23:56.334Z,2.67
2023-01-20T23:29:01.863Z,2.76
2023-01-20T23:34:07.337Z,2.74
2023-01-20T23:39:12.801Z,2.78
2023-01-20T23:44:18.263Z,2.83
2023-01-20T23:49:25.173Z,2.78
2023-01-20T23:54:30.702Z,2.69
2023-01-20T23:59:38.044Z,2.71
